createdAt,value
2023-01-23T00:01:31.134Z,64.61
2023-01-23T00:03:59.319Z,64.24
2023-01-23T00:06:27.320Z,63.69
2023-01-23T00:08:56.768Z,63.57
2023-01-23T00:11:26.064Z,64.11
2023-01-23T00:13:54.005Z,64.67
2023-01-23T00:16:23.077Z,65.00
2023-01-23T00:18:50.599Z,65.22
2023-01-23T00:21:21.047Z,65.45
2023-01-23T00:23:51.842Z,64.61
2023-01-23T00:26:21.036Z,65.21
2023-01-23T00:28:48.397Z,65.00
2023-01-23T00:31:21.108Z,66.02
2023-01-23T00:33:49.111Z,64.94
2023-01-23T00:36:16.821Z,63.59
2023-01-23T00:38:44.520Z,64.90
2023-01-23T00:41:12.751Z,64.18
2023-01-23T00:43:40.556Z,64.96
2023-01-23T00:46:08.255Z,64.73
2023-01-23T00:48:36.352Z,64.95
2023-01-23T00:51:04.234Z,64.71
2023-01-23T00:53:32.291Z,65.34
2023-01-23T00:55:59.867Z,65.53
2023-01-23T00:58:27.847Z,66.23
2023-01-23T01:00:55.991Z,66.46
2023-01-23T01:03:25.337Z,66.20
2023-01-23T01:05:53.159Z,65.98
2023-01-23T01:08:24.529Z,66.02
2023-01-23T01:10:52.580Z,65.72
2023-01-23T01:13:21.547Z,66.18
2023-01-23T01:15:54.124Z,65.91
2023-01-23T01:18:22.816Z,65.92
2023-01-23T01:20:50.543Z,66.08
2023-01-23T01:23:18.677Z,67.15
2023-01-23T01:25:47.117Z,67.19
2023-01-23T01:28:14.958Z,67.39
2023-01-23T01:30:42.617Z,67.01
2023-01-23T01:33:11.192Z,66.76
2023-01-23T01:35:40.001Z,66.58
2023-01-23T01:38:08.995Z,65.72
2023-01-23T01:40:37.292Z,65.37
2023-01-23T01:43:08.307Z,64.90
2023-01-23T01:46:03.099Z,65.31
2023-01-23T01:48:40.763Z,64.69
2023-01-23T01:51:29.846Z,65.28
2023-01-23T01:54:20.694Z,64.76
2023-01-23T01:56:58.418Z,64.44
2023-01-23T01:59:27.683Z,63.25
2023-01-23T02:01:58.828Z,64.24
2023-01-23T02:04:26.046Z,65.01
2023-01-23T02:06:53.906Z,63.87
2023-01-23T02:09:26.910Z,64.45
2023-01-23T02:11:54.585Z,64.81
2023-01-23T02:14:25.800Z,65.66
2023-01-23T02:17:00.362Z,65.64
2023-01-23T02:19:27.496Z,66.33
2023-01-23T02:22:04.113Z,66.74
2023-01-23T02:24:35.166Z,66.55
2023-01-23T02:27:03.309Z,66.10
2023-01-23T02:29:43.303Z,66.07
2023-01-23T02:32:11.743Z,65.64
2023-01-23T02:34:39.003Z,65.43
2023-01-23T02:37:06.304Z,65.42
2023-01-23T02:39:34.567Z,65.65
2023-01-23T02:42:01.734Z,65.79
2023-01-23T02:44:32.013Z,65.74
2023-01-23T02:47:01.391Z,66.15
2023-01-23T02:49:30.482Z,66.37
2023-01-23T02:51:58.668Z,66.54
2023-01-23T02:54:26.853Z,67.27
2023-01-23T02:56:54.738Z,66.99
2023-01-23T02:59:40.831Z,67.20
2023-01-23T03:02:08.370Z,67.33
2023-01-23T03:04:36.387Z,67.08
2023-01-23T03:07:04.736Z,68.25
2023-01-23T03:09:32.337Z,67.84
2023-01-23T03:12:00.973Z,65.90
2023-01-23T03:14:30.167Z,66.06
2023-01-23T03:16:58.701Z,65.25
2023-01-23T03:19:27.224Z,66.07
2023-01-23T03:21:54.770Z,66.59
2023-01-23T03:24:22.727Z,66.38
2023-01-23T03:26:50.897Z,67.28
2023-01-23T03:29:44.745Z,68.74
2023-01-23T03:32:12.794Z,67.57
2023-01-23T03:34:41.581Z,68.64
2023-01-23T03:37:09.522Z,67.63
2023-01-23T03:39:55.758Z,68.07
2023-01-23T03:42:24.503Z,69.30
2023-01-23T03:44:52.882Z,69.78
2023-01-23T03:47:20.904Z,70.86
2023-01-23T03:49:48.729Z,72.15
2023-01-23T03:52:16.277Z,71.73
2023-01-23T03:54:43.973Z,74.39
2023-01-23T03:57:11.535Z,74.37
2023-01-23T03:59:39.635Z,74.89
2023-01-23T04:02:07.666Z,73.67
2023-01-23T04:04:34.832Z,73.79
2023-01-23T04:07:02.584Z,74.08
2023-01-23T04:09:30.433Z,73.12
2023-01-23T04:11:58.560Z,72.75
2023-01-23T04:14:26.590Z,71.98
2023-01-23T04:16:54.725Z,72.01
2023-01-23T04:19:22.955Z,70.78
2023-01-23T04:21:50.918Z,70.65
2023-01-23T04:24:18.580Z,71.00
2023-01-23T04:26:46.154Z,70.66
2023-01-23T04:29:13.868Z,70.83
2023-01-23T04:31:41.809Z,71.10
2023-01-23T04:34:09.591Z,70.48
2023-01-23T04:36:37.542Z,70.99
2023-01-23T04:39:05.094Z,71.69
2023-01-23T04:41:33.670Z,70.72
2023-01-23T04:44:20.407Z,71.08
2023-01-23T04:46:53.040Z,71.09
2023-01-23T04:49:40.666Z,71.68
2023-01-23T04:52:08.679Z,71.05
2023-01-23T04:54:36.934Z,69.79
2023-01-23T04:57:05.363Z,69.96
2023-01-23T04:59:33.474Z,71.83
2023-01-23T05:02:02.419Z,73.49
2023-01-23T05:04:30.561Z,75.20
2023-01-23T05:06:58.596Z,73.76
2023-01-23T05:09:27.060Z,75.04
2023-01-23T05:11:54.992Z,75.52
2023-01-23T05:14:24.356Z,77.21
2023-01-23T05:16:52.146Z,76.80
2023-01-23T05:19:20.195Z,76.95
2023-01-23T05:21:48.897Z,77.26
2023-01-23T05:24:16.898Z,78.01
2023-01-23T05:26:45.215Z,78.55
2023-01-23T05:29:13.269Z,78.59
2023-01-23T05:31:41.889Z,79.04
2023-01-23T05:34:09.707Z,79.64
2023-01-23T05:36:37.686Z,79.71
2023-01-23T05:39:05.191Z,80.54
2023-01-23T05:41:33.519Z,80.95
2023-01-23T05:44:01.238Z,81.17
2023-01-23T05:46:29.642Z,81.78
2023-01-23T05:48:57.512Z,81.07
2023-01-23T05:51:31.635Z,80.55
2023-01-23T05:54:02.819Z,80.60
2023-01-23T05:56:30.517Z,80.22
2023-01-23T05:58:58.508Z,81.15
2023-01-23T06:01:26.531Z,81.46
2023-01-23T06:03:54.659Z,81.95
2023-01-23T06:06:22.396Z,82.63
2023-01-23T06:08:50.158Z,83.60
2023-01-23T06:11:18.276Z,83.85
2023-01-23T06:13:46.233Z,84.96
2023-01-23T06:16:16.922Z,86.16
2023-01-23T06:18:45.129Z,86.91
2023-01-23T06:21:12.985Z,87.60
2023-01-23T06:23:40.749Z,88.29
2023-01-23T06:26:08.713Z,88.77
2023-01-23T06:28:36.351Z,89.70
2023-01-23T06:31:04.281Z,90.21
2023-01-23T06:33:32.466Z,91.35
2023-01-23T06:36:00.841Z,91.23
2023-01-23T06:38:28.730Z,91.24
2023-01-23T06:40:57.881Z,92.20
2023-01-23T06:43:25.295Z,92.26
2023-01-23T06:45:53.229Z,92.15
2023-01-23T06:48:22.014Z,92.71
2023-01-23T06:50:49.714Z,92.81
2023-01-23T06:53:17.400Z,92.88
2023-01-23T06:55:45.214Z,92.76
2023-01-23T06:58:12.789Z,93.43
2023-01-23T07:00:40.753Z,92.97
2023-01-23T07:03:08.983Z,93.45
2023-01-23T07:05:39.565Z,94.39
2023-01-23T07:08:08.701Z,94.69
2023-01-23T07:10:40.773Z,93.65
2023-01-23T07:13:09.413Z,93.54
2023-01-23T07:15:37.663Z,94.81
2023-01-23T07:18:05.896Z,95.82
2023-01-23T07:20:33.542Z,96.64
2023-01-23T07:23:03.922Z,97.13
2023-01-23T07:25:32.788Z,97.38
2023-01-23T07:28:01.558Z,97.09
2023-01-23T07:30:29.562Z,96.71
2023-01-23T07:32:58.465Z,96.07
2023-01-23T07:35:25.552Z,95.50
2023-01-23T07:37:53.827Z,95.74
2023-01-23T07:40:22.268Z,96.08
2023-01-23T07:42:50.603Z,95.76
2023-01-23T07:45:18.739Z,94.66
2023-01-23T07:47:46.796Z,93.90
2023-01-23T07:50:15.052Z,92.77
2023-01-23T07:52:42.944Z,92.54
2023-01-23T07:55:10.774Z,92.81
2023-01-23T07:57:38.430Z,92.80
2023-01-23T08:00:08.661Z,92.73
2023-01-23T08:02:37.007Z,93.76
2023-01-23T08:05:04.906Z,94.32
2023-01-23T08:07:33.020Z,95.33
2023-01-23T08:10:01.188Z,95.49
2023-01-23T08:12:29.267Z,95.94
2023-01-23T08:14:57.553Z,95.55
2023-01-23T08:17:25.591Z,96.74
2023-01-23T08:19:53.588Z,97.71
2023-01-23T08:22:21.788Z,98.43
2023-01-23T08:24:50.270Z,98.70
2023-01-23T08:27:17.889Z,98.74
2023-01-23T08:29:46.073Z,99.56
2023-01-23T08:32:16.879Z,99.76
2023-01-23T08:34:44.651Z,100.00
2023-01-23T08:37:12.688Z,100.00
2023-01-23T08:39:40.249Z,100.00
2023-01-23T08:42:08.425Z,100.00
2023-01-23T08:44:36.473Z,100.00
2023-01-23T08:47:04.639Z,100.00
2023-01-23T08:49:34.868Z,100.00
2023-01-23T08:52:02.517Z,100.00
2023-01-23T08:54:30.752Z,100.00
2023-01-23T08:56:58.782Z,100.00
2023-01-23T08:59:27.525Z,100.00
2023-01-23T09:01:55.909Z,100.00
2023-01-23T09:04:24.033Z,100.00
2023-01-23T09:06:52.191Z,100.00
2023-01-23T09:09:20.066Z,100.00
2023-01-23T09:11:47.645Z,100.00
2023-01-23T09:14:15.873Z,100.00
2023-01-23T09:16:46.507Z,100.00
2023-01-23T09:19:15.875Z,100.00
2023-01-23T09:21:43.886Z,100.00
2023-01-23T09:24:12.284Z,100.00
2023-01-23T09:26:40.357Z,100.00
2023-01-23T09:29:08.521Z,100.00
2023-01-23T09:31:36.723Z,100.00
2023-01-23T09:34:04.569Z,100.00
2023-01-23T09:36:42.357Z,100.00
2023-01-23T09:39:10.938Z,100.00
2023-01-23T09:41:39.353Z,100.00
2023-01-23T09:44:22.649Z,100.00
2023-01-23T09:46:56.586Z,100.00
2023-01-23T09:49:31.383Z,100.00
2023-01-23T09:52:26.541Z,100.00
2023-01-23T09:55:03.883Z,100.00
2023-01-23T09:57:36.142Z,100.00
2023-01-23T10:00:07.641Z,100.00
2023-01-23T10:02:35.710Z,100.00
2023-01-23T10:05:03.872Z,100.00
2023-01-23T10:08:11.258Z,100.00
2023-01-23T10:10:54.149Z,100.00
2023-01-23T10:13:48.703Z,100.00
2023-01-23T10:16:48.821Z,100.00
2023-01-23T10:19:57.842Z,100.00
2023-01-23T10:22:38.087Z,100.00
2023-01-23T10:25:26.374Z,100.00
2023-01-23T10:27:56.488Z,100.00
2023-01-23T10:30:29.868Z,100.00
2023-01-23T10:33:01.600Z,100.00
2023-01-23T10:36:02.373Z,100.00
2023-01-23T10:38:55.150Z,100.00
2023-01-23T10:41:27.703Z,100.00
2023-01-23T10:43:56.776Z,100.00
2023-01-23T10:46:38.731Z,100.00
2023-01-23T10:49:13.749Z,100.00
2023-01-23T10:51:48.115Z,100.00
2023-01-23T10:54:31.316Z,100.00
2023-01-23T10:57:04.791Z,100.00
2023-01-23T10:59:48.867Z,100.00
2023-01-23T11:02:18.999Z,100.00
2023-01-23T11:04:48.095Z,100.00
2023-01-23T11:07:19.970Z,100.00
2023-01-23T11:09:49.986Z,100.00
2023-01-23T11:12:56.286Z,100.00
2023-01-23T11:15:38.163Z,100.00
2023-01-23T11:18:32.436Z,100.00
2023-01-23T11:21:00.150Z,100.00
2023-01-23T11:23:27.002Z,100.00
2023-01-23T11:25:55.015Z,100.00
2023-01-23T11:28:34.313Z,100.00
2023-01-23T11:31:16.268Z,100.00
2023-01-23T11:33:53.214Z,100.00
2023-01-23T11:36:19.850Z,100.00
2023-01-23T11:38:54.867Z,100.00
2023-01-23T11:41:31.780Z,100.00
2023-01-23T11:44:08.103Z,100.00
2023-01-23T11:46:46.196Z,100.00
2023-01-23T11:49:23.537Z,100.00
2023-01-23T11:51:50.104Z,99.99
2023-01-23T11:54:32.780Z,98.87
2023-01-23T11:57:08.610Z,97.51
2023-01-23T12:00:06.816Z,96.86
2023-01-23T12:02:39.181Z,94.93
2023-01-23T12:05:37.814Z,93.19
2023-01-23T12:08:11.225Z,91.81
2023-01-23T12:10:48.099Z,92.65
2023-01-23T12:14:03.858Z,92.36
2023-01-23T12:16:49.805Z,92.48
2023-01-23T12:19:28.878Z,91.86
2023-01-23T12:22:08.261Z,92.02
2023-01-23T12:25:16.577Z,91.23
2023-01-23T12:27:47.878Z,90.43
2023-01-23T12:30:52.039Z,87.73
2023-01-23T12:33:25.387Z,88.57
2023-01-23T12:36:17.637Z,87.39
2023-01-23T12:39:05.904Z,87.17
2023-01-23T12:41:46.614Z,85.41
2023-01-23T12:44:17.996Z,84.89
2023-01-23T12:47:01.060Z,82.90
2023-01-23T12:49:43.356Z,81.36
2023-01-23T12:52:38.663Z,82.13
2023-01-23T12:55:21.976Z,80.33
2023-01-23T12:58:00.265Z,80.08
2023-01-23T13:00:41.482Z,78.19
2023-01-23T13:03:37.414Z,78.16
2023-01-23T13:06:44.308Z,78.66
2023-01-23T13:09:40.305Z,79.91
2023-01-23T13:12:19.936Z,77.45
2023-01-23T13:17:37.911Z,78.93
2023-01-23T13:20:47.594Z,78.61
2023-01-23T13:23:32.894Z,77.62
2023-01-23T13:26:19.673Z,78.94
2023-01-23T13:29:32.661Z,77.64
2023-01-23T13:32:40.581Z,78.56
2023-01-23T13:35:40.232Z,78.11
2023-01-23T13:38:37.789Z,77.63
2023-01-23T13:41:18.644Z,76.94
2023-01-23T13:44:19.064Z,77.38
2023-01-23T14:24:25.119Z,64.65
2023-01-23T14:27:07.005Z,65.46
2023-01-23T14:29:35.836Z,65.83
2023-01-23T14:32:03.660Z,65.09
2023-01-23T14:34:31.528Z,65.54
2023-01-23T14:37:06.351Z,67.16
2023-01-23T14:39:34.725Z,68.05
2023-01-23T14:42:02.789Z,67.68
2023-01-23T14:44:38.079Z,68.61
2023-01-23T14:47:05.820Z,68.32
2023-01-23T14:49:36.638Z,68.20
2023-01-23T14:52:06.152Z,69.67
2023-01-23T14:54:34.661Z,69.60
2023-01-23T14:57:03.036Z,70.10
2023-01-23T14:59:33.975Z,70.48
2023-01-23T15:02:07.702Z,71.57
2023-01-23T15:04:44.586Z,70.32
2023-01-23T15:07:17.393Z,70.95
2023-01-23T15:09:46.607Z,71.46
2023-01-23T15:12:17.410Z,71.52
2023-01-23T15:14:45.337Z,70.79
2023-01-23T15:17:20.141Z,71.92
2023-01-23T15:19:51.833Z,72.24
2023-01-23T15:22:22.746Z,71.98
2023-01-23T15:24:57.550Z,72.73
2023-01-23T15:27:31.120Z,71.95
2023-01-23T15:30:28.866Z,71.87
2023-01-23T15:45:16.479Z,82.85
2023-01-23T15:47:44.420Z,82.54
2023-01-23T15:50:13.316Z,81.41
2023-01-23T15:52:47.457Z,80.12
2023-01-23T15:55:15.405Z,77.92
2023-01-23T15:57:43.364Z,75.92
2023-01-23T16:00:19.061Z,75.40
2023-01-23T16:02:56.186Z,76.08
2023-01-23T16:05:25.520Z,74.64
2023-01-23T16:07:53.173Z,74.87
2023-01-23T16:10:58.307Z,75.99
2023-01-23T16:13:26.316Z,75.42
2023-01-23T16:15:54.028Z,74.94
2023-01-23T16:18:23.928Z,75.42
2023-01-23T16:20:51.608Z,74.21
2023-01-23T16:23:22.796Z,74.56
2023-01-23T16:25:56.330Z,75.14
2023-01-23T16:28:24.418Z,74.77
2023-01-23T16:30:52.335Z,73.75
2023-01-23T16:33:20.877Z,74.58
2023-01-23T16:35:48.597Z,73.06
2023-01-23T16:38:22.770Z,72.72
2023-01-23T16:40:51.796Z,72.54
2023-01-23T16:43:20.389Z,72.44
2023-01-23T16:45:48.090Z,71.97
2023-01-23T16:48:26.333Z,72.14
2023-01-23T16:50:56.858Z,72.36
2023-01-23T16:53:26.348Z,72.48
2023-01-23T16:55:54.590Z,72.18
2023-01-23T16:59:00.508Z,71.60
2023-01-23T17:01:28.685Z,70.26
2023-01-23T17:04:03.094Z,70.92
2023-01-23T17:06:30.028Z,69.97
2023-01-23T17:08:57.837Z,70.71
2023-01-23T17:11:34.233Z,70.68
2023-01-23T17:14:07.050Z,69.91
2023-01-23T17:16:35.073Z,71.02
2023-01-23T17:19:02.827Z,71.49
2023-01-23T17:21:32.945Z,70.32
2023-01-23T17:24:00.333Z,70.63
2023-01-23T17:26:28.458Z,71.25
2023-01-23T17:28:56.471Z,71.34
2023-01-23T17:31:24.748Z,72.17
2023-01-23T17:33:52.908Z,72.61
2023-01-23T17:36:20.407Z,71.88
2023-01-23T17:38:48.421Z,72.79
2023-01-23T17:41:15.779Z,72.50
2023-01-23T17:43:49.016Z,72.32
2023-01-23T17:46:39.774Z,72.14
2023-01-23T17:49:36.311Z,71.42
2023-01-23T17:52:04.466Z,70.67
2023-01-23T17:54:33.144Z,70.36
2023-01-23T17:57:00.814Z,70.56
2023-01-23T17:59:28.704Z,69.73
2023-01-23T18:01:56.639Z,70.24
2023-01-23T18:04:24.865Z,70.26
2023-01-23T18:06:52.721Z,70.23
2023-01-23T18:09:21.366Z,70.81
2023-01-23T18:11:55.272Z,70.75
2023-01-23T18:14:33.545Z,70.46
2023-01-23T18:17:20.718Z,70.14
2023-01-23T18:19:51.701Z,70.51
2023-01-23T18:22:20.267Z,70.69
2023-01-23T18:24:49.728Z,69.87
2023-01-23T18:27:25.830Z,69.42
2023-01-23T18:30:09.164Z,70.62
2023-01-23T18:32:50.789Z,71.63
2023-01-23T18:35:44.330Z,73.29
2023-01-23T18:38:16.822Z,73.53
2023-01-23T18:41:08.591Z,72.56
2023-01-23T18:43:39.157Z,72.47
2023-01-23T18:46:35.999Z,74.69
2023-01-23T18:49:05.850Z,77.13
2023-01-23T18:51:47.302Z,79.74
2023-01-23T18:54:29.046Z,82.54
2023-01-23T18:56:55.906Z,84.26
2023-01-23T18:59:28.417Z,89.06
2023-01-23T19:02:28.476Z,90.08
2023-01-23T19:05:28.885Z,90.07
2023-01-23T19:07:57.558Z,89.49
2023-01-23T19:10:40.094Z,88.76
2023-01-23T19:13:42.291Z,89.21
2023-01-23T19:16:31.646Z,90.44
2023-01-23T19:19:26.926Z,91.84
2023-01-23T19:22:01.058Z,91.37
2023-01-23T19:24:30.592Z,89.01
2023-01-23T19:27:00.173Z,87.68
2023-01-23T19:29:29.061Z,87.75
2023-01-23T19:32:06.193Z,86.99
2023-01-23T19:34:34.166Z,86.02
2023-01-23T19:37:02.540Z,85.10
2023-01-23T19:39:30.942Z,83.63
2023-01-23T19:41:59.237Z,82.13
2023-01-23T19:44:28.974Z,80.91
2023-01-23T19:46:56.736Z,80.25
2023-01-23T19:49:25.265Z,79.43
2023-01-23T19:51:53.229Z,79.64
2023-01-23T19:54:23.006Z,78.92
2023-01-23T19:56:52.471Z,78.35
2023-01-23T19:59:20.928Z,79.59
2023-01-23T20:01:48.756Z,80.21
2023-01-23T20:04:20.973Z,81.74
2023-01-23T20:06:54.653Z,85.12
2023-01-23T20:09:22.550Z,88.47
2023-01-23T20:11:50.461Z,90.35
2023-01-23T20:14:18.655Z,90.17
2023-01-23T20:16:46.664Z,90.33
2023-01-23T20:19:15.321Z,89.91
2023-01-23T20:21:43.556Z,88.80
2023-01-23T20:24:11.520Z,89.44
2023-01-23T20:26:39.362Z,89.59
2023-01-23T20:29:08.040Z,90.54
2023-01-23T20:31:36.069Z,89.36
2023-01-23T20:34:04.471Z,89.64
2023-01-23T20:36:32.550Z,89.32
2023-01-23T20:39:00.056Z,89.02
2023-01-23T20:41:27.971Z,88.50
2023-01-23T20:43:55.184Z,88.36
2023-01-23T20:46:23.275Z,88.18
2023-01-23T20:48:51.370Z,88.32
2023-01-23T20:51:19.511Z,88.53
2023-01-23T20:53:47.186Z,88.66
2023-01-23T20:56:19.015Z,87.63
2023-01-23T20:59:06.267Z,88.00
2023-01-23T21:01:54.737Z,87.57
2023-01-23T21:04:22.501Z,87.81
2023-01-23T21:06:50.094Z,88.00
2023-01-23T21:09:18.361Z,88.17
2023-01-23T21:11:46.125Z,88.88
2023-01-23T21:14:14.339Z,91.17
2023-01-23T21:16:42.100Z,93.46
2023-01-23T21:19:09.905Z,95.78
2023-01-23T21:21:37.555Z,97.09
2023-01-23T21:24:06.038Z,97.13
2023-01-23T21:26:33.908Z,96.65
2023-01-23T21:29:02.164Z,96.34
2023-01-23T21:31:33.594Z,96.45
2023-01-23T21:34:02.592Z,96.87
2023-01-23T21:36:31.823Z,95.04
2023-01-23T21:38:58.923Z,95.04
2023-01-23T21:41:27.511Z,95.24
2023-01-23T21:43:55.226Z,94.61
2023-01-23T21:46:22.981Z,94.47
2023-01-23T21:48:51.994Z,93.73
2023-01-23T21:51:22.799Z,94.64
2023-01-23T21:53:50.603Z,94.06
2023-01-23T21:56:19.286Z,94.11
2023-01-23T21:58:50.214Z,94.29
2023-01-23T22:01:39.630Z,94.63
2023-01-23T22:04:18.455Z,94.55
2023-01-23T22:06:46.080Z,95.39
2023-01-23T22:09:36.816Z,95.53
2023-01-23T22:12:05.538Z,94.67
2023-01-23T22:14:33.163Z,94.26
2023-01-23T22:17:00.864Z,94.35
2023-01-23T22:19:28.935Z,92.83
2023-01-23T22:21:57.307Z,92.43
2023-01-23T22:24:24.544Z,91.75
2023-01-23T22:26:52.779Z,90.64
2023-01-23T22:29:20.474Z,90.96
2023-01-23T22:31:48.724Z,90.30
2023-01-23T22:34:17.016Z,90.67
2023-01-23T22:36:45.042Z,90.77
2023-01-23T22:39:12.544Z,90.99
2023-01-23T22:41:40.462Z,90.21
2023-01-23T22:44:08.671Z,90.75
2023-01-23T22:46:37.009Z,90.32
2023-01-23T22:49:05.167Z,90.93
2023-01-23T22:51:32.822Z,91.96
2023-01-23T22:54:00.459Z,92.81
2023-01-23T22:56:28.528Z,92.11
2023-01-23T22:58:56.095Z,91.03
2023-01-23T23:01:23.517Z,91.96
2023-01-23T23:03:51.616Z,92.52
2023-01-23T23:06:19.454Z,92.63
2023-01-23T23:08:48.147Z,92.57
2023-01-23T23:11:18.220Z,92.90
2023-01-23T23:13:45.488Z,91.93
2023-01-23T23:16:22.156Z,92.46
2023-01-23T23:18:51.774Z,91.56
2023-01-23T23:21:20.986Z,91.81
2023-01-23T23:23:49.086Z,91.80
2023-01-23T23:26:17.356Z,91.93
2023-01-23T23:28:45.617Z,92.52
2023-01-23T23:31:13.511Z,92.07
2023-01-23T23:33:41.639Z,91.87
2023-01-23T23:36:10.400Z,92.38
2023-01-23T23:38:38.234Z,92.39
2023-01-23T23:41:11.733Z,92.27
2023-01-23T23:43:39.200Z,92.34
2023-01-23T23:46:07.309Z,92.43
2023-01-23T23:48:35.963Z,92.49
2023-01-23T23:51:04.802Z,92.49
2023-01-23T23:53:32.914Z,93.10
2023-01-23T23:56:01.164Z,92.92
2023-01-23T23:58:29.011Z,92.00
